Time;durP1;ratioP1;P1;durP2;ratioP2;P2;SDS_P1;SDS_P2;PMS_P1;PMS_P2;Temp;Humidity;BMP_temperature;BMP_pressure;BME280_temperature;BME280_humidity;BME280_pressure;Samples;Min_cycle;Max_cycle;Signal;HPM_P1;HPM_P2
2021/10/18 00:00:55;;;;;;;27.10;17.00;;;;;;;16.38;68.22;99597.44;5021264;28;20458;-73
2021/10/18 00:03:21;;;;;;;24.58;14.77;;;;;;;16.45;67.98;99597.13;5039720;28;20040;-73
2021/10/18 00:05:47;;;;;;;27.73;17.27;;;;;;;16.48;67.84;99590.28;5044133;28;20048;-73
2021/10/18 00:08:13;;;;;;;22.50;16.95;;;;;;;16.43;67.94;99596.59;5040842;28;20057;-73
2021/10/18 00:10:39;;;;;;;26.48;18.27;;;;;;;16.46;67.61;99589.75;5042229;28;20033;-73
2021/10/18 00:13:05;;;;;;;20.90;17.17;;;;;;;16.44;67.49;99595.50;5045670;28;20045;-73
2021/10/18 00:15:31;;;;;;;33.20;18.50;;;;;;;16.47;67.71;99597.63;5038677;28;20076;-72
2021/10/18 00:17:59;;;;;;;26.05;18.75;;;;;;;16.59;66.99;99599.97;5058569;28;20042;-73
2021/10/18 00:20:25;;;;;;;27.50;18.20;;;;;;;16.60;67.15;99590.72;5047197;28;20033;-73
2021/10/18 00:22:51;;;;;;;25.38;19.23;;;;;;;16.56;67.08;99588.88;5044845;28;20071;-73
2021/10/18 00:25:17;;;;;;;24.95;18.50;;;;;;;16.50;66.94;99585.38;5050911;28;20079;-73
2021/10/18 00:27:43;;;;;;;24.25;18.15;;;;;;;16.41;67.28;99584.38;5036309;28;20037;-73
2021/10/18 00:30:10;;;;;;;22.63;17.60;;;;;;;16.33;67.59;99581.16;5045619;28;20040;-73
2021/10/18 00:32:35;;;;;;;27.15;17.95;;;;;;;16.29;67.68;99596.41;5029003;28;20064;-73
2021/10/18 00:35:02;;;;;;;24.20;18.17;;;;;;;16.25;67.55;99587.22;5044068;28;20112;-73
2021/10/18 00:37:28;;;;;;;27.63;18.55;;;;;;;16.16;67.81;99588.91;5052407;28;20029;-73
2021/10/18 00:39:53;;;;;;;23.13;18.50;;;;;;;16.13;67.97;99582.16;5043692;28;20041;-73
2021/10/18 00:42:19;;;;;;;28.35;19.10;;;;;;;16.02;68.03;99592.28;5026289;28;20032;-73
2021/10/18 00:44:45;;;;;;;30.95;20.05;;;;;;;15.95;68.49;99584.47;5052786;28;20033;-73
2021/10/18 00:47:15;;;;;;;30.58;19.88;;;;;;;15.90;69.00;99589.09;5049097;28;20036;-74
2021/10/18 00:49:41;;;;;;;30.55;20.45;;;;;;;15.84;69.07;99585.56;5038703;28;20391;-73
2021/10/18 00:52:07;;;;;;;27.40;19.70;;;;;;;15.93;68.82;99594.81;5040379;28;20571;-73
2021/10/18 00:54:34;;;;;;;25.55;17.85;;;;;;;15.88;68.59;99600.22;5037681;28;20040;-73
2021/10/18 00:56:59;;;;;;;29.20;19.52;;;;;;;15.80;69.08;99596.19;5041885;28;20550;-73
2021/10/18 00:59:25;;;;;;;28.45;18.73;;;;;;;15.77;68.84;99590.50;5047161;28;20112;-72
2021/10/18 01:01:52;;;;;;;29.35;19.95;;;;;;;15.74;69.58;99596.50;5036120;28;20072;-73
2021/10/18 01:04:18;;;;;;;29.73;20.10;;;;;;;15.70;69.51;99592.72;5035758;28;20487;-73
2021/10/18 01:06:44;;;;;;;37.45;21.48;;;;;;;15.66;69.73;99589.75;5036395;28;20521;-73
2021/10/18 01:09:10;;;;;;;35.92;22.30;;;;;;;15.57;69.96;99594.94;5037973;28;20036;-73
2021/10/18 01:11:36;;;;;;;31.85;22.42;;;;;;;15.61;70.11;99584.38;5041295;28;20044;-74
2021/10/18 01:14:01;;;;;;;38.25;22.73;;;;;;;15.63;69.79;99582.97;5037891;28;20033;-73
2021/10/18 01:16:27;;;;;;;30.05;21.40;;;;;;;15.62;69.45;99586.00;5054044;28;20056;-73
2021/10/18 01:18:52;;;;;;;35.97;24.40;;;;;;;15.55;70.06;99583.56;5050143;28;20043;-74
2021/10/18 01:21:18;;;;;;;34.20;23.80;;;;;;;15.52;69.64;99576.81;5044586;28;20068;-73
2021/10/18 01:23:44;;;;;;;37.88;26.40;;;;;;;15.48;70.48;99580.34;5049509;28;20072;-73
2021/10/18 01:26:10;;;;;;;41.58;26.70;;;;;;;15.44;70.45;99585.53;5050537;28;20025;-73
2021/10/18 01:28:38;;;;;;;37.53;27.63;;;;;;;15.40;70.80;99589.06;5014345;28;20056;-75
2021/10/18 01:31:04;;;;;;;38.65;27.80;;;;;;;15.45;70.53;99578.19;5050336;28;20494;-74
2021/10/18 01:33:30;;;;;;;41.38;28.92;;;;;;;15.44;70.27;99582.81;5035568;28;20025;-74
2021/10/18 01:35:56;;;;;;;39.45;28.50;;;;;;;15.43;70.17;99578.47;5051404;28;20143;-74
2021/10/18 01:38:22;;;;;;;43.28;31.30;;;;;;;15.35;71.07;99579.88;5032619;28;20119;-73
2021/10/18 01:40:48;;;;;;;44.55;31.60;;;;;;;15.35;70.92;99589.91;5056497;28;20134;-73
2021/10/18 01:43:14;;;;;;;47.53;32.35;;;;;;;15.32;70.48;99591.28;5048777;28;20041;-73
2021/10/18 01:45:40;;;;;;;48.22;33.20;;;;;;;15.26;71.25;99589.66;5043010;28;20029;-72
2021/10/18 01:48:06;;;;;;;48.92;34.75;;;;;;;15.31;70.89;99573.38;5047640;28;20040;-73
2021/10/18 01:50:32;;;;;;;52.33;35.88;;;;;;;15.27;71.62;99574.22;5053149;28;20049;-73
2021/10/18 01:52:58;;;;;;;53.42;36.50;;;;;;;15.26;71.53;99578.03;5036670;28;20473;-72
2021/10/18 01:55:23;;;;;;;50.47;37.08;;;;;;;15.26;71.61;99583.44;5013222;28;20088;-72
2021/10/18 01:57:51;;;;;;;55.72;36.80;;;;;;;15.21;71.70;99589.69;5046775;28;20433;-72
2021/10/18 02:00:17;;;;;;;54.75;36.25;;;;;;;15.13;71.58;99582.13;5046908;28;20036;-73
2021/10/18 02:02:43;;;;;;;55.22;38.80;;;;;;;15.18;71.44;99576.69;5038859;28;20125;-71
2021/10/18 02:05:08;;;;;;;51.28;37.25;;;;;;;15.25;71.41;99565.53;5044767;28;20120;-72
2021/10/18 02:07:34;;;;;;;55.97;39.92;;;;;;;15.19;71.81;99554.72;5035251;28;20032;-72
2021/10/18 02:10:00;;;;;;;54.50;39.53;;;;;;;15.23;71.12;99554.97;5020004;28;20048;-72
2021/10/18 02:12:26;;;;;;;56.45;40.25;;;;;;;15.23;71.15;99560.38;5051078;28;20037;-72
2021/10/18 02:14:52;;;;;;;59.63;40.50;;;;;;;15.13;71.49;99553.13;5037463;28;20040;-72
2021/10/18 02:17:18;;;;;;;64.50;40.85;;;;;;;15.11;71.29;99541.72;5049886;28;20033;-72
2021/10/18 02:19:44;;;;;;;58.95;39.90;;;;;;;15.07;71.54;99546.88;5037216;28;20116;-74
2021/10/18 02:22:09;;;;;;;72.05;43.92;;;;;;;15.05;71.35;99549.06;5034531;28;20081;-74
2021/10/18 02:24:35;;;;;;;67.00;45.28;;;;;;;14.97;71.73;99538.78;5035181;28;20111;-73
2021/10/18 02:27:00;;;;;;;62.60;41.33;;;;;;;15.03;70.77;99539.59;5041674;28;20185;-74
2021/10/18 02:29:26;;;;;;;71.40;47.50;;;;;;;14.98;71.16;99539.59;5039393;28;20037;-73
2021/10/18 02:31:51;;;;;;;68.72;46.88;;;;;;;14.97;71.26;99549.63;5037813;28;20091;-73
2021/10/18 02:34:17;;;;;;;79.18;51.05;;;;;;;14.91;71.69;99548.81;5058126;28;20043;-73
2021/10/18 02:36:43;;;;;;;72.88;50.08;;;;;;;14.96;71.85;99542.59;5039520;28;20060;-72
2021/10/18 02:39:09;;;;;;;80.90;54.75;;;;;;;14.89;71.99;99550.22;5044018;28;20067;-72
2021/10/18 02:41:34;;;;;;;83.18;53.83;;;;;;;14.91;71.90;99548.81;5045548;28;20033;-72
2021/10/18 02:44:01;;;;;;;82.93;54.00;;;;;;;14.89;72.06;99550.22;5022268;28;20364;-72
2021/10/18 02:46:26;;;;;;;83.15;54.97;;;;;;;14.89;72.29;99555.63;5041315;28;20043;-72
2021/10/18 02:48:52;;;;;;;82.80;55.03;;;;;;;14.91;72.18;99558.88;5042691;28;20508;-72
2021/10/18 02:51:18;;;;;;;93.95;56.47;;;;;;;14.92;71.73;99550.44;5049727;28;20064;-71
2021/10/18 02:53:43;;;;;;;83.65;53.30;;;;;;;14.91;71.89;99556.16;5042084;28;20064;-72
2021/10/18 02:56:09;;;;;;;81.15;53.90;;;;;;;14.88;72.18;99545.88;5046463;28;20033;-73
2021/10/18 02:58:34;;;;;;;91.38;55.90;;;;;;;14.87;71.97;99545.03;5041353;28;20033;-73
2021/10/18 03:01:00;;;;;;;81.80;52.67;;;;;;;14.88;72.00;99543.97;5051647;28;20025;-73
2021/10/18 03:03:25;;;;;;;76.90;53.60;;;;;;;14.86;72.12;99548.84;5037940;28;20605;-74
2021/10/18 03:05:51;;;;;;;84.97;52.45;;;;;;;14.78;71.85;99552.13;5042510;28;20382;-73
2021/10/18 03:08:16;;;;;;;76.95;52.30;;;;;;;14.80;71.64;99558.09;5042545;28;20067;-74
2021/10/18 03:10:42;;;;;;;79.38;50.97;;;;;;;14.74;72.25;99564.59;5043542;28;20104;-75
2021/10/18 03:13:08;;;;;;;79.28;52.25;;;;;;;14.70;72.07;99553.50;5049281;28;20520;-73
2021/10/18 03:15:34;;;;;;;80.80;50.72;;;;;;;14.69;71.48;99560.00;5049094;28;20029;-73
2021/10/18 03:18:00;;;;;;;80.85;51.85;;;;;;;14.68;72.35;99546.69;5038105;28;20021;-73
2021/10/18 03:20:25;;;;;;;85.57;52.80;;;;;;;14.64;72.30;99546.44;5031979;28;20430;-73
2021/10/18 03:22:53;;;;;;;81.55;50.53;;;;;;;14.68;72.07;99533.16;5050539;28;20060;-73
2021/10/18 03:25:19;;;;;;;80.03;52.10;;;;;;;14.69;71.63;99535.59;5047679;28;20471;-73
2021/10/18 03:27:44;;;;;;;80.68;51.80;;;;;;;14.67;71.76;99518.78;5046991;28;20039;-73
2021/10/18 03:30:10;;;;;;;85.40;52.33;;;;;;;14.68;71.57;99514.16;5039745;28;20510;-73
2021/10/18 03:32:36;;;;;;;77.90;50.55;;;;;;;14.68;72.04;99515.00;5060398;28;20437;-73
2021/10/18 03:35:02;;;;;;;80.18;50.85;;;;;;;14.69;71.46;99497.66;5042313;28;20419;-73
2021/10/18 03:37:27;;;;;;;77.15;49.55;;;;;;;14.64;71.80;99489.53;5049861;28;20029;-73
2021/10/18 03:39:53;;;;;;;76.15;47.55;;;;;;;14.67;71.02;99496.28;5047733;28;20036;-73
2021/10/18 03:42:18;;;;;;;73.97;46.38;;;;;;;14.63;70.81;99498.75;5047009;28;20064;-73
2021/10/18 03:44:44;;;;;;;71.10;45.38;;;;;;;14.51;71.16;99506.38;5045047;28;20562;-73
2021/10/18 03:47:09;;;;;;;72.03;45.92;;;;;;;14.46;71.47;99528.84;5047334;28;20083;-73
2021/10/18 03:49:35;;;;;;;78.40;48.17;;;;;;;14.28;72.33;99514.00;5044551;28;20025;-73
2021/10/18 03:52:01;;;;;;;77.93;49.05;;;;;;;14.32;72.17;99515.88;5046369;28;20112;-73
2021/10/18 03:54:26;;;;;;;73.97;47.35;;;;;;;14.28;72.04;99536.47;5044228;28;20029;-73
2021/10/18 03:56:52;;;;;;;86.18;50.65;;;;;;;14.19;72.29;99521.84;5049065;28;20044;-72
2021/10/18 03:59:17;;;;;;;90.53;51.88;;;;;;;14.01;73.01;99498.81;5037312;28;20124;-73
2021/10/18 04:01:43;;;;;;;85.43;51.65;;;;;;;14.12;72.67;99511.28;5036499;28;20028;-73
2021/10/18 04:04:09;;;;;;;86.47;50.72;;;;;;;14.05;72.89;99530.53;5036132;28;20041;-73
2021/10/18 04:06:35;;;;;;;84.07;50.78;;;;;;;13.97;73.09;99514.00;5037616;28;20033;-75
2021/10/18 04:09:00;;;;;;;81.10;50.22;;;;;;;14.05;72.98;99513.44;5036034;28;20715;-74
2021/10/18 04:11:26;;;;;;;85.80;51.55;;;;;;;14.02;72.80;99524.81;5050814;28;20099;-73
2021/10/18 04:13:52;;;;;;;82.07;50.78;;;;;;;13.99;73.17;99509.94;5038569;28;20393;-73
2021/10/18 04:16:17;;;;;;;81.80;52.70;;;;;;;13.99;73.20;99493.69;5049491;28;20044;-73
2021/10/18 04:18:43;;;;;;;78.03;49.50;;;;;;;14.03;72.96;99507.50;5047188;28;20036;-73
2021/10/18 04:21:08;;;;;;;77.75;48.67;;;;;;;13.98;72.91;99527.28;5045900;28;20025;-73
2021/10/18 04:23:34;;;;;;;87.10;51.25;;;;;;;14.09;72.83;99522.66;5045841;28;20116;-73
2021/10/18 04:26:00;;;;;;;80.10;51.53;;;;;;;14.04;73.24;99512.66;5044777;28;20064;-73
2021/10/18 04:28:26;;;;;;;76.80;48.50;;;;;;;14.16;72.71;99500.72;5045264;28;20025;-73
2021/10/18 04:30:52;;;;;;;80.95;50.15;;;;;;;14.13;72.59;99518.31;5044447;28;20526;-73
2021/10/18 04:33:19;;;;;;;84.95;49.67;;;;;;;14.24;72.47;99516.44;5043220;28;20044;-73
2021/10/18 04:35:46;;;;;;;74.45;48.55;;;;;;;14.24;72.65;99512.91;5042869;28;20025;-73
2021/10/18 04:38:11;;;;;;;77.60;49.50;;;;;;;14.27;72.17;99488.78;5040820;28;20032;-73
2021/10/18 04:40:37;;;;;;;84.97;49.70;;;;;;;14.32;71.99;99502.31;5036536;28;20495;-73
2021/10/18 04:43:03;;;;;;;88.88;51.05;;;;;;;14.25;72.84;99509.91;5041414;28;20044;-72
2021/10/18 04:45:28;;;;;;;83.50;52.33;;;;;;;14.15;73.06;99507.22;5039725;28;20116;-73
2021/10/18 04:47:54;;;;;;;90.70;52.70;;;;;;;14.23;73.06;99512.09;5039700;28;20040;-73
2021/10/18 04:50:22;;;;;;;91.65;50.40;;;;;;;14.22;73.15;99506.97;5039319;28;20422;-73
2021/10/18 04:52:49;;;;;;;82.97;50.03;;;;;;;14.29;72.93;99494.75;5036301;28;20041;-73
2021/10/18 04:55:15;;;;;;;78.07;49.92;;;;;;;14.42;72.72;99496.09;5040173;28;20021;-73
2021/10/18 04:57:54;;;;;;;81.05;48.55;;;;;;;14.30;72.94;99511.81;5038382;28;20095;-73
2021/10/18 05:00:22;;;;;;;73.82;49.08;;;;;;;14.41;73.30;99496.34;5053147;28;20033;-73
2021/10/18 05:02:47;;;;;;;76.78;49.28;;;;;;;14.35;73.63;99496.38;5042046;28;20045;-73
2021/10/18 05:05:13;;;;;;;76.20;48.72;;;;;;;14.38;73.11;99503.16;5046054;28;20072;-74
2021/10/18 05:07:40;;;;;;;73.35;45.55;;;;;;;14.48;72.87;99507.72;5049818;28;20049;-74
2021/10/18 05:10:14;;;;;;;75.30;46.10;;;;;;;14.33;73.16;99503.94;5046211;28;20037;-73
2021/10/18 05:12:40;;;;;;;70.25;44.60;;;;;;;14.55;72.89;99519.09;5048149;28;20040;-75
2021/10/18 05:15:07;;;;;;;69.43;43.50;;;;;;;14.51;72.50;99511.78;5050967;28;20037;-74
2021/10/18 05:17:34;;;;;;;66.40;42.63;;;;;;;14.42;72.49;99514.22;5037092;28;20045;-72
2021/10/18 05:19:59;;;;;;;72.38;42.58;;;;;;;14.38;72.93;99524.00;5035325;28;20044;-72
2021/10/18 05:22:25;;;;;;;65.18;41.28;;;;;;;14.18;72.64;99499.38;5037678;28;20049;-73
2021/10/18 05:24:51;;;;;;;61.25;40.35;;;;;;;14.23;72.38;99476.88;5038697;28;20033;-73
2021/10/18 05:27:16;;;;;;;62.55;40.83;;;;;;;14.30;72.10;99482.81;5037460;28;20569;-73
2021/10/18 05:29:42;;;;;;;56.97;37.75;;;;;;;14.26;71.67;99484.47;5051838;28;20407;-72
2021/10/18 05:32:07;;;;;;;60.35;36.88;;;;;;;14.10;71.99;99496.41;5047628;28;20033;-72
2021/10/18 05:34:33;;;;;;;56.00;37.40;;;;;;;14.03;72.61;99472.28;5039217;28;20072;-72
2021/10/18 05:36:58;;;;;;;64.63;38.80;;;;;;;13.99;72.27;99454.97;5049812;28;20368;-72
2021/10/18 05:39:24;;;;;;;60.97;38.50;;;;;;;14.00;72.11;99453.88;5049516;28;20525;-72
2021/10/18 05:41:50;;;;;;;61.10;37.28;;;;;;;14.02;71.75;99467.97;5043474;28;20028;-72
2021/10/18 05:44:16;;;;;;;62.88;39.97;;;;;;;13.94;72.19;99471.22;5045932;28;20457;-72
2021/10/18 05:46:41;;;;;;;62.05;38.17;;;;;;;13.86;72.26;99478.78;5042040;28;20460;-73
2021/10/18 05:49:07;;;;;;;61.42;38.85;;;;;;;13.84;72.39;99456.59;5047106;28;20045;-72
2021/10/18 05:51:32;;;;;;;60.78;37.97;;;;;;;13.83;72.46;99440.66;5049181;28;20482;-72
2021/10/18 05:53:59;;;;;;;64.93;38.22;;;;;;;13.74;72.66;99445.78;5048721;28;20072;-73
2021/10/18 05:56:25;;;;;;;57.28;36.78;;;;;;;13.78;72.53;99446.84;5051633;28;20025;-72
2021/10/18 05:58:50;;;;;;;70.03;40.03;;;;;;;13.66;72.80;99438.19;5046841;28;20029;-72
2021/10/18 06:01:16;;;;;;;64.18;38.78;;;;;;;13.69;72.50;99445.78;5051004;28;20112;-73
2021/10/18 06:03:42;;;;;;;68.70;41.25;;;;;;;13.67;72.70;99447.94;5046245;28;20065;-71
2021/10/18 06:06:08;;;;;;;63.83;38.08;;;;;;;13.70;72.24;99442.00;5047144;28;20067;-72
2021/10/18 06:08:35;;;;;;;60.03;37.70;;;;;;;13.59;72.55;99462.84;5029245;28;20375;-71
2021/10/18 06:11:01;;;;;;;59.08;37.50;;;;;;;13.69;72.10;99460.13;5045667;28;20112;-72
2021/10/18 06:13:27;;;;;;;58.95;38.03;;;;;;;13.58;72.47;99442.28;5040553;28;20068;-75
2021/10/18 06:15:54;;;;;;;58.47;37.05;;;;;;;13.75;71.91;99440.09;5044342;28;20036;-75
2021/10/18 06:18:19;;;;;;;54.50;35.75;;;;;;;13.58;72.25;99444.97;5031090;28;20033;-75
2021/10/18 06:20:48;;;;;;;54.42;35.70;;;;;;;13.66;72.00;99428.19;5036918;28;20124;-75
2021/10/18 06:23:15;;;;;;;54.13;35.25;;;;;;;13.70;71.36;99436.56;5037153;28;20037;-75
2021/10/18 06:25:42;;;;;;;56.20;35.05;;;;;;;13.64;71.68;99446.59;5032672;28;20512;-75
2021/10/18 06:28:08;;;;;;;48.88;34.40;;;;;;;13.71;71.78;99430.91;5038822;28;20525;-75
2021/10/18 06:30:35;;;;;;;58.10;36.22;;;;;;;13.70;72.03;99434.69;5044454;28;20585;-75
2021/10/18 06:33:03;;;;;;;53.55;34.83;;;;;;;13.69;71.69;99435.78;5047684;28;20090;-75
2021/10/18 06:35:37;;;;;;;56.58;37.00;;;;;;;13.57;72.46;99460.38;5044541;28;20551;-74
2021/10/18 06:38:10;;;;;;;66.78;46.08;;;;;;;13.69;72.47;99443.91;5048198;28;20090;-73
2021/10/18 06:40:35;;;;;;;58.00;36.53;;;;;;;13.83;71.68;99440.66;5045927;28;20475;-75
2021/10/18 06:43:02;;;;;;;50.63;35.45;;;;;;;13.80;71.95;99446.59;5044951;28;20119;-74
2021/10/18 06:45:27;;;;;;;59.67;37.63;;;;;;;13.84;71.71;99437.66;5047812;28;20040;-76
2021/10/18 06:47:53;;;;;;;55.33;36.65;;;;;;;13.91;71.72;99421.16;5035808;28;20071;-72
2021/10/18 06:50:22;;;;;;;53.22;37.03;;;;;;;14.08;71.23;99418.13;5049224;28;20450;-72
2021/10/18 06:52:48;;;;;;;57.97;37.15;;;;;;;14.16;71.07;99433.00;5038117;28;20044;-72
2021/10/18 06:55:16;;;;;;;59.42;36.45;;;;;;;14.13;71.30;99422.72;5045541;28;20026;-71
2021/10/18 06:57:41;;;;;;;55.03;35.97;;;;;;;14.02;71.30;99421.94;5044908;28;20051;-71
2021/10/18 07:00:07;;;;;;;54.95;36.08;;;;;;;14.15;71.40;99425.97;5045563;28;20498;-73
2021/10/18 07:02:33;;;;;;;53.17;35.15;;;;;;;14.24;70.92;99440.59;5043906;28;20716;-72
2021/10/18 07:04:59;;;;;;;50.38;34.13;;;;;;;14.06;71.93;99441.97;5037295;28;20037;-71
2021/10/18 07:07:27;;;;;;;51.88;32.83;;;;;;;14.23;71.36;99443.59;5041887;28;20032;-73
2021/10/18 07:10:01;;;;;;;56.80;35.67;;;;;;;14.23;71.96;99435.47;5046548;28;20120;-73
2021/10/18 07:12:32;;;;;;;44.45;32.55;;;;;;;14.33;71.76;99428.09;5043623;28;20118;-70
2021/10/18 07:14:59;;;;;;;49.78;33.75;;;;;;;14.45;71.35;99430.50;5044120;28;20056;-73
2021/10/18 07:17:26;;;;;;;52.50;33.83;;;;;;;14.44;71.51;99436.19;5044196;28;20043;-73
2021/10/18 07:19:54;;;;;;;53.63;34.30;;;;;;;14.57;70.96;99421.25;5042997;28;20806;-73
2021/10/18 07:22:24;;;;;;;51.72;33.88;;;;;;;14.62;70.87;99413.09;5044848;28;20120;-73
2021/10/18 07:24:51;;;;;;;49.83;33.00;;;;;;;14.69;70.79;99410.09;5043377;28;20247;-74
2021/10/18 07:27:16;;;;;;;47.47;32.72;;;;;;;14.58;71.74;99406.63;5045230;28;20048;-72
2021/10/18 07:29:42;;;;;;;49.28;32.78;;;;;;;14.59;71.59;99408.25;5041451;28;20089;-73
2021/10/18 07:32:07;;;;;;;54.60;33.97;;;;;;;14.86;70.58;99404.34;5023672;28;20676;-72
2021/10/18 07:34:33;;;;;;;54.25;35.10;;;;;;;14.70;71.34;99419.88;5042732;28;20044;-72
2021/10/18 07:37:00;;;;;;;56.38;33.95;;;;;;;14.86;70.86;99426.03;5046664;28;20131;-72
2021/10/18 07:39:26;;;;;;;51.78;34.03;;;;;;;14.92;70.85;99424.94;5041433;28;20044;-74
2021/10/18 07:41:55;;;;;;;59.63;34.58;;;;;;;14.88;71.59;99413.00;5039292;28;20450;-72
2021/10/18 07:44:24;;;;;;;55.05;35.63;;;;;;;14.98;71.39;99415.66;5036102;28;20049;-72
2021/10/18 07:46:59;;;;;;;55.05;35.05;;;;;;;15.14;70.90;99407.44;5045499;28;20144;-72
2021/10/18 07:49:30;;;;;;;55.78;34.50;;;;;;;15.05;71.44;99402.59;5044234;28;20482;-72
2021/10/18 07:51:56;;;;;;;52.88;32.83;;;;;;;15.05;71.22;99399.91;5046708;28;20026;-73
2021/10/18 07:54:24;;;;;;;57.13;34.55;;;;;;;15.27;70.54;99398.66;5039778;28;20025;-72
2021/10/18 07:56:51;;;;;;;56.60;33.45;;;;;;;15.32;70.81;99411.41;5039180;28;20028;-73
2021/10/18 07:59:16;;;;;;;53.10;32.60;;;;;;;15.24;71.13;99409.28;5039216;28;20056;-73
2021/10/18 08:01:42;;;;;;;57.42;35.38;;;;;;;15.06;71.95;99389.88;5036479;28;20076;-73
2021/10/18 08:04:07;;;;;;;63.88;35.85;;;;;;;15.29;71.47;99398.41;5039524;28;20072;-73
2021/10/18 08:06:33;;;;;;;57.90;36.67;;;;;;;15.47;70.78;99392.28;5042321;28;20391;-73
2021/10/18 08:09:00;;;;;;;59.30;36.08;;;;;;;15.29;70.71;99392.97;5041333;28;20083;-73
2021/10/18 08:11:26;;;;;;;56.38;34.75;;;;;;;15.47;70.91;99386.03;5045385;28;20032;-73
2021/10/18 08:13:52;;;;;;;60.70;35.15;;;;;;;15.49;70.71;99403.66;5037546;28;20045;-73
2021/10/18 08:16:17;;;;;;;55.28;35.08;;;;;;;15.48;71.02;99393.91;5025634;28;20043;-73
2021/10/18 08:18:43;;;;;;;59.88;34.45;;;;;;;15.41;70.73;99377.13;5048471;28;20029;-73
2021/10/18 08:21:10;;;;;;;56.05;35.70;;;;;;;15.61;70.85;99402.50;5038942;28;20064;-73
2021/10/18 08:23:37;;;;;;;53.00;33.55;;;;;;;15.72;70.27;99374.16;5042712;28;20033;-73
2021/10/18 08:26:04;;;;;;;51.40;33.63;;;;;;;15.60;70.59;99385.38;5044018;28;20060;-73
2021/10/18 08:28:30;;;;;;;52.67;32.70;;;;;;;15.40;71.49;99397.22;5036519;28;20642;-72
2021/10/18 08:30:57;;;;;;;52.70;31.88;;;;;;;15.68;70.94;99408.41;5043941;28;20044;-73
2021/10/18 08:33:23;;;;;;;54.22;33.78;;;;;;;15.60;71.37;99401.66;5034581;28;20165;-72
2021/10/18 08:35:48;;;;;;;48.53;33.30;;;;;;;15.50;71.53;99394.44;5031585;28;20034;-72
2021/10/18 08:38:48;;;;;;;47.80;32.55;;;;;;;15.68;71.23;99389.41;5039098;28;20393;-73
2021/10/18 08:46:04;;;;;;;47.85;31.75;;;;;;;15.81;70.56;99396.88;5042157;28;20173;-73
2021/10/18 08:48:30;;;;;;;44.58;31.73;;;;;;;15.98;70.00;99397.56;5046417;28;20036;-73
2021/10/18 08:50:56;;;;;;;49.75;30.67;;;;;;;15.65;71.14;99398.91;5046473;28;20119;-73
2021/10/18 08:53:21;;;;;;;43.60;30.45;;;;;;;15.92;70.51;99392.19;5046322;28;20040;-72
2021/10/18 08:55:47;;;;;;;41.22;29.15;;;;;;;15.95;70.56;99388.91;5040149;28;20047;-73
2021/10/18 08:58:12;;;;;;;39.45;28.23;;;;;;;16.30;69.69;99379.84;5050459;28;20037;-73
2021/10/18 09:00:51;;;;;;;37.55;27.27;;;;;;;16.01;70.32;99373.34;5044487;28;20068;-71
2021/10/18 09:03:17;;;;;;;70.97;27.92;;;;;;;16.07;70.14;99371.41;5044622;28;20389;-72
2021/10/18 09:05:43;;;;;;;36.53;24.60;;;;;;;16.31;69.84;99365.16;5052170;28;20030;-73
2021/10/18 09:08:26;;;;;;;32.80;24.48;;;;;;;16.36;69.53;99359.66;5038479;28;20033;-72
2021/10/18 09:11:22;;;;;;;32.15;23.70;;;;;;;16.36;69.54;99355.03;5038641;28;20405;-72
2021/10/18 09:13:50;;;;;;;35.65;23.45;;;;;;;16.78;68.48;99374.34;5025988;28;20367;-71
2021/10/18 09:16:37;;;;;;;33.85;24.13;;;;;;;16.58;69.01;99363.75;5050058;28;20091;-72
2021/10/18 09:19:18;;;;;;;35.72;24.90;;;;;;;16.78;68.09;99370.78;5047009;28;20111;-71
2021/10/18 09:21:46;;;;;;;35.80;24.42;;;;;;;16.99;67.98;99384.97;5037850;28;20061;-72
2021/10/18 09:24:41;;;;;;;35.42;24.50;;;;;;;16.99;67.96;99367.84;5041900;28;20029;-73
2021/10/18 09:27:25;;;;;;;35.55;24.73;;;;;;;17.17;67.13;99367.03;5037883;28;20047;-72
2021/10/18 09:29:52;;;;;;;33.42;24.77;;;;;;;17.26;66.85;99376.13;5029522;28;20037;-72
2021/10/18 09:32:20;;;;;;;32.97;24.17;;;;;;;17.04;67.50;99379.44;5037996;28;20116;-72
2021/10/18 09:34:46;;;;;;;34.30;23.70;;;;;;;17.22;67.35;99369.66;5030973;28;20115;-72
2021/10/18 09:37:13;;;;;;;30.15;22.27;;;;;;;17.23;67.33;99360.38;5048205;28;20112;-72
2021/10/18 09:39:44;;;;;;;37.15;22.98;;;;;;;17.46;66.59;99357.03;5047850;28;20142;-72
2021/10/18 09:42:16;;;;;;;29.98;22.30;;;;;;;17.45;66.45;99358.13;5027190;28;20035;-72
2021/10/18 10:53:30;;;;;;;33.13;23.65;;;;;;;17.40;67.19;99351.66;5042256;28;20390;-67
2021/10/18 10:55:59;;;;;;;31.50;22.90;;;;;;;17.29;67.33;99352.16;5044790;28;20059;-67
2021/10/18 10:58:33;;;;;;;36.22;21.85;;;;;;;17.45;67.09;99344.50;5039199;28;20039;-68
2021/10/18 11:00:59;;;;;;;31.15;22.15;;;;;;;17.23;67.92;99341.34;5034498;28;20033;-68
2021/10/18 11:03:35;;;;;;;29.95;21.40;;;;;;;17.58;67.14;99335.56;5038752;28;20059;-68
2021/10/18 11:06:11;;;;;;;30.23;20.30;;;;;;;17.27;68.32;99328.75;5046591;28;20087;-68
2021/10/18 11:08:44;;;;;;;27.67;20.45;;;;;;;17.37;68.38;99318.81;5044117;28;20292;-68
2021/10/18 11:11:12;;;;;;;36.78;21.13;;;;;;;17.59;68.07;99328.22;5040528;28;20025;-68
2021/10/18 11:13:56;;;;;;;33.13;20.50;;;;;;;17.78;67.82;99325.44;5032427;28;20048;-68
2021/10/18 11:16:24;;;;;;;36.55;21.63;;;;;;;17.77;67.90;99323.81;5046364;28;20033;-68
2021/10/18 11:18:55;;;;;;;29.35;21.23;;;;;;;17.70;68.30;99327.75;5036900;28;20033;-68
2021/10/18 11:21:29;;;;;;;31.90;21.92;;;;;;;17.67;68.68;99327.53;5050887;28;20057;-68
2021/10/18 11:24:04;;;;;;;31.23;21.95;;;;;;;17.35;69.63;99321.00;5033660;28;20721;-68
2021/10/18 11:26:36;;;;;;;30.02;21.67;;;;;;;17.51;69.49;99327.00;5038162;28;20064;-68
2021/10/18 11:29:07;;;;;;;30.30;22.15;;;;;;;17.72;68.70;99313.81;5037975;28;20124;-68
2021/10/18 11:31:35;;;;;;;34.20;22.92;;;;;;;17.70;69.11;99307.88;5041739;28;20463;-68
2021/10/18 11:34:02;;;;;;;35.53;23.27;;;;;;;17.74;68.97;99300.72;5031031;28;20056;-68
2021/10/18 11:36:29;;;;;;;33.45;21.80;;;;;;;17.54;69.65;99301.88;5053385;28;20057;-68
2021/10/18 11:39:21;;;;;;;28.10;20.92;;;;;;;17.72;69.60;99304.84;5041352;28;20475;-68
2021/10/18 11:41:59;;;;;;;31.58;20.77;;;;;;;17.82;68.99;99299.22;5039746;28;20059;-68
2021/10/18 11:44:57;;;;;;;35.75;22.20;;;;;;;17.55;69.77;99287.16;5042079;28;20116;-68
2021/10/18 11:47:31;;;;;;;44.20;22.92;;;;;;;17.49;70.58;99278.28;4999496;28;20068;-68
2021/10/18 11:50:15;;;;;;;33.92;23.33;;;;;;;17.75;69.76;99285.19;5043567;28;20049;-68
2021/10/18 11:52:44;;;;;;;39.35;24.42;;;;;;;17.87;69.72;99284.69;5033145;28;20037;-68
2021/10/18 11:55:12;;;;;;;39.33;25.02;;;;;;;17.66;70.39;99280.41;5033102;28;20032;-68
2021/10/18 11:57:39;;;;;;;38.17;24.88;;;;;;;17.68;70.35;99285.56;5042901;28;20043;-68
2021/10/18 12:00:09;;;;;;;39.97;23.60;;;;;;;18.07;69.00;99276.13;5049183;28;20083;-68
2021/10/18 12:02:40;;;;;;;35.80;24.70;;;;;;;17.89;69.63;99269.66;5037182;28;20081;-68
2021/10/18 12:05:06;;;;;;;33.83;24.17;;;;;;;17.87;69.79;99271.88;5034484;28;20033;-68
2021/10/18 12:07:37;;;;;;;40.53;24.35;;;;;;;17.82;69.93;99280.94;5031837;28;20112;-68
2021/10/18 12:10:18;;;;;;;35.63;24.30;;;;;;;17.94;69.46;99277.72;5043134;28;20025;-68
2021/10/18 12:13:08;;;;;;;38.30;23.50;;;;;;;17.92;69.75;99270.94;5046000;28;20040;-68
2021/10/18 12:16:03;;;;;;;37.63;23.65;;;;;;;17.60;70.85;99248.94;5035996;28;20114;-68
2021/10/18 12:18:34;;;;;;;34.22;24.05;;;;;;;17.75;70.27;99252.50;5035047;28;20045;-68
2021/10/18 12:21:29;;;;;;;35.10;24.35;;;;;;;18.04;69.78;99257.66;5033390;28;20398;-67
2021/10/18 12:24:06;;;;;;;36.90;23.20;;;;;;;18.07;69.73;99243.41;5028321;28;20050;-68
2021/10/18 12:26:33;;;;;;;34.88;23.08;;;;;;;17.89;70.37;99253.31;5049680;28;20439;-68
2021/10/18 12:29:11;;;;;;;35.50;24.15;;;;;;;18.20;69.66;99260.06;5051329;28;20028;-68
2021/10/18 12:31:36;;;;;;;39.03;23.00;;;;;;;18.04;70.16;99259.59;5036785;28;20056;-68
2021/10/18 12:34:15;;;;;;;34.75;22.77;;;;;;;18.12;70.02;99258.88;5044867;28;20111;-68